createdAt,value
2018-10-07T00:00:29.044Z,15.97
2018-10-07T00:02:56.689Z,14.60
2018-10-07T00:05:24.421Z,11.37
2018-10-07T00:07:52.062Z,14.67
2018-10-07T00:10:20.689Z,16.73
2018-10-07T00:12:48.344Z,19.57
2018-10-07T00:15:17.011Z,24.70
2018-10-07T00:17:44.580Z,25.23
2018-10-07T00:20:12.700Z,29.30
2018-10-07T00:22:40.435Z,31.10
2018-10-07T00:25:12.833Z,32.10
2018-10-07T00:27:40.569Z,36.53
2018-10-07T00:30:08.213Z,40.20
2018-10-07T00:32:35.802Z,47.33
2018-10-07T00:35:07.016Z,53.10
2018-10-07T00:37:34.590Z,60.47
2018-10-07T00:40:02.193Z,65.33
2018-10-07T00:42:33.414Z,66.87
2018-10-07T00:45:00.977Z,59.07
2018-10-07T00:47:28.538Z,63.33
2018-10-07T00:49:56.153Z,65.73
2018-10-07T00:52:25.031Z,68.60
2018-10-07T00:54:52.692Z,66.03
2018-10-07T00:57:20.285Z,68.50
2018-10-07T00:59:47.948Z,73.20
2018-10-07T01:02:15.600Z,68.83
2018-10-07T01:04:43.193Z,79.23
2018-10-07T01:07:10.765Z,81.10
2018-10-07T01:09:38.315Z,77.87
2018-10-07T01:12:05.953Z,87.27
2018-10-07T01:14:33.602Z,92.33
2018-10-07T01:17:01.257Z,85.00
2018-10-07T01:19:31.220Z,92.07
2018-10-07T01:21:58.849Z,95.40
2018-10-07T01:24:26.481Z,98.10
2018-10-07T01:26:54.333Z,101.33
2018-10-07T01:29:21.909Z,92.23
2018-10-07T01:31:49.494Z,97.47
2018-10-07T01:34:17.092Z,99.73
2018-10-07T01:36:44.665Z,102.03
2018-10-07T01:39:12.222Z,97.10
2018-10-07T01:41:40.945Z,91.83
2018-10-07T01:44:08.509Z,93.67
2018-10-07T01:46:36.249Z,93.60
2018-10-07T01:49:03.893Z,90.40
2018-10-07T01:51:31.437Z,87.73
2018-10-07T01:53:59.003Z,89.50
2018-10-07T01:56:26.572Z,87.70
2018-10-07T01:58:54.137Z,85.60
2018-10-07T02:01:22.670Z,95.07
2018-10-07T02:03:51.543Z,99.47
2018-10-07T02:06:19.330Z,95.77
2018-10-07T02:08:46.933Z,98.43
2018-10-07T02:11:14.517Z,93.47
2018-10-07T02:13:42.570Z,90.07
2018-10-07T02:16:10.198Z,84.23
2018-10-07T02:18:38.524Z,88.90
2018-10-07T02:21:06.313Z,93.27
2018-10-07T02:23:33.917Z,84.80
2018-10-07T02:26:02.361Z,88.17
2018-10-07T02:28:29.917Z,89.53
2018-10-07T02:30:57.457Z,88.73
2018-10-07T02:33:25.985Z,87.67
2018-10-07T02:35:53.585Z,91.73
2018-10-07T02:38:21.121Z,82.67
2018-10-07T02:40:48.673Z,84.23
2018-10-07T02:43:16.239Z,79.80
2018-10-07T02:45:43.932Z,78.23
2018-10-07T02:48:11.546Z,80.87
2018-10-07T02:50:39.919Z,80.57
2018-10-07T02:53:08.052Z,84.97
2018-10-07T02:55:35.806Z,97.63
2018-10-07T02:58:04.470Z,89.10
2018-10-07T03:00:32.047Z,85.93
2018-10-07T03:02:59.634Z,92.17
2018-10-07T03:05:27.230Z,97.30
2018-10-07T03:07:55.113Z,101.50
2018-10-07T03:10:23.676Z,99.40
2018-10-07T03:12:51.337Z,108.17
2018-10-07T03:15:18.876Z,108.30
2018-10-07T03:17:46.673Z,106.10
2018-10-07T03:20:14.421Z,107.60
2018-10-07T03:22:41.960Z,113.83
2018-10-07T03:25:09.562Z,107.87
2018-10-07T03:27:37.472Z,108.70
2018-10-07T03:30:05.397Z,112.07
2018-10-07T03:32:33.582Z,109.23
2018-10-07T03:35:02.298Z,110.97
2018-10-07T03:37:29.868Z,103.10
2018-10-07T03:39:57.456Z,102.77
2018-10-07T03:42:26.541Z,99.67
2018-10-07T03:44:54.097Z,99.93
2018-10-07T03:47:21.657Z,107.33
2018-10-07T03:49:49.228Z,105.80
2018-10-07T03:52:17.241Z,115.73
2018-10-07T03:54:44.913Z,117.37
2018-10-07T03:57:12.571Z,121.97
2018-10-07T03:59:40.181Z,120.23
2018-10-07T04:02:07.778Z,131.00
2018-10-07T04:04:35.779Z,127.47
2018-10-07T04:07:03.414Z,130.60
2018-10-07T04:09:31.113Z,129.27
2018-10-07T04:11:58.662Z,134.53
2018-10-07T04:14:26.241Z,129.37
2018-10-07T04:16:54.232Z,146.30
2018-10-07T04:19:22.013Z,131.53
2018-10-07T04:21:56.493Z,135.03
2018-10-07T04:24:25.346Z,130.43
2018-10-07T04:26:53.069Z,136.00
2018-10-07T04:29:20.634Z,136.60
2018-10-07T04:31:49.095Z,132.60
2018-10-07T04:34:16.817Z,130.40
2018-10-07T04:36:44.452Z,135.10
2018-10-07T04:39:12.765Z,130.37
2018-10-07T04:41:42.141Z,121.67
2018-10-07T04:44:10.190Z,130.13
2018-10-07T04:46:38.289Z,119.37
2018-10-07T04:49:05.909Z,122.63
2018-10-07T04:51:33.614Z,119.67
2018-10-07T04:54:01.665Z,127.43
2018-10-07T04:56:29.759Z,126.90
2018-10-07T04:58:57.327Z,120.37
2018-10-07T05:01:24.901Z,128.57
2018-10-07T05:03:52.730Z,125.87
2018-10-07T05:06:20.938Z,120.90
2018-10-07T05:08:48.699Z,124.47
2018-10-07T05:11:16.439Z,118.63
2018-10-07T05:13:48.381Z,151.97
2018-10-07T05:16:18.259Z,126.87
2018-10-07T05:18:46.117Z,116.77
2018-10-07T05:21:14.747Z,120.83
2018-10-07T05:23:42.365Z,116.30
2018-10-07T05:26:10.050Z,117.63
2018-10-07T05:28:37.645Z,117.77
2018-10-07T05:31:05.469Z,118.00
2018-10-07T05:33:33.091Z,118.60
2018-10-07T05:36:00.646Z,95.03
2018-10-07T05:38:28.217Z,80.50
2018-10-07T05:40:55.795Z,75.13
2018-10-07T05:43:23.953Z,69.73
2018-10-07T05:45:51.545Z,69.47
2018-10-07T05:48:19.210Z,63.60
2018-10-07T05:50:47.371Z,62.13
2018-10-07T05:53:14.929Z,67.07
2018-10-07T05:55:42.659Z,59.70
2018-10-07T05:58:10.141Z,57.27
2018-10-07T06:00:38.025Z,57.23
2018-10-07T06:03:23.845Z,58.53
2018-10-07T06:05:51.974Z,52.33
2018-10-07T06:08:19.978Z,52.10
2018-10-07T06:10:47.742Z,47.10
2018-10-07T06:13:15.347Z,50.40
2018-10-07T06:15:43.266Z,44.77
2018-10-07T06:18:10.900Z,44.73
2018-10-07T06:20:38.553Z,39.90
2018-10-07T06:23:06.270Z,38.63
2018-10-07T06:25:33.910Z,35.07
2018-10-07T06:28:01.566Z,35.37
2018-10-07T06:30:29.246Z,34.03
2018-10-07T06:32:56.861Z,34.00
2018-10-07T06:35:25.153Z,31.43
2018-10-07T06:37:53.172Z,32.87
2018-10-07T06:40:21.014Z,37.53
2018-10-07T06:42:50.120Z,34.93
2018-10-07T06:45:17.980Z,32.70
2018-10-07T06:47:45.542Z,32.23
2018-10-07T06:50:13.155Z,29.20
2018-10-07T06:52:40.794Z,32.00
2018-10-07T06:55:08.458Z,29.13
2018-10-07T06:57:37.112Z,28.47
2018-10-07T07:00:05.407Z,26.77
2018-10-07T07:02:33.049Z,21.13
2018-10-07T07:05:00.605Z,21.17
2018-10-07T07:07:28.180Z,22.03
2018-10-07T07:09:55.747Z,23.57
2018-10-07T07:12:23.343Z,23.40
2018-10-07T07:14:50.958Z,22.63
2018-10-07T07:17:18.529Z,23.47
2018-10-07T07:19:46.160Z,25.00
2018-10-07T07:22:13.726Z,25.20
2018-10-07T07:24:41.342Z,27.00
2018-10-07T07:27:08.941Z,28.00
2018-10-07T07:29:36.561Z,26.83
2018-10-07T07:32:04.289Z,25.77
2018-10-07T07:34:31.841Z,25.50
2018-10-07T07:36:59.448Z,25.77
2018-10-07T07:39:27.168Z,26.43
2018-10-07T07:41:54.958Z,25.83
2018-10-07T07:44:22.654Z,40.07
2018-10-07T07:46:50.418Z,34.37
2018-10-07T07:49:18.110Z,27.13
2018-10-07T07:51:45.689Z,23.63
2018-10-07T07:54:13.314Z,24.73
2018-10-07T07:56:40.926Z,24.07
2018-10-07T07:59:08.495Z,20.17
2018-10-07T08:01:36.053Z,22.13
2018-10-07T08:04:03.668Z,16.87
2018-10-07T08:06:31.239Z,15.00
2018-10-07T08:08:58.841Z,17.20
2018-10-07T08:11:26.416Z,15.83
2018-10-07T08:13:54.110Z,15.57
2018-10-07T08:16:21.690Z,16.33
2018-10-07T08:18:49.343Z,12.67
2018-10-07T08:21:16.905Z,9.70
2018-10-07T08:23:44.568Z,13.63
2018-10-07T08:26:12.081Z,13.10
2018-10-07T08:28:39.665Z,12.47
2018-10-07T08:31:07.279Z,14.37
2018-10-07T08:33:34.841Z,16.20
2018-10-07T08:36:02.560Z,21.17
2018-10-07T08:38:30.185Z,18.40
2018-10-07T08:40:57.833Z,20.73
2018-10-07T08:43:25.418Z,16.87
2018-10-07T08:45:53.094Z,18.93
2018-10-07T08:48:21.239Z,21.40
2018-10-07T08:50:48.845Z,19.70
2018-10-07T08:53:16.436Z,34.83
2018-10-07T08:55:44.006Z,26.57
2018-10-07T08:58:11.602Z,23.87
2018-10-07T09:00:39.206Z,22.90
2018-10-07T09:03:06.776Z,24.40
2018-10-07T09:05:34.345Z,26.90
2018-10-07T09:08:01.948Z,20.53
2018-10-07T09:10:29.569Z,22.13
2018-10-07T09:12:57.240Z,23.17
2018-10-07T09:15:24.798Z,19.40
2018-10-07T09:17:52.454Z,20.80
2018-10-07T09:20:22.158Z,16.63
2018-10-07T09:22:49.782Z,18.03
2018-10-07T09:25:17.398Z,18.80
2018-10-07T09:27:45.469Z,19.70
2018-10-07T09:30:13.081Z,16.53
2018-10-07T09:32:40.746Z,16.70
2018-10-07T09:35:08.349Z,13.53
2018-10-07T09:37:37.790Z,15.97
2018-10-07T09:40:06.341Z,14.30
2018-10-07T09:42:34.525Z,12.67
2018-10-07T09:45:02.125Z,13.63
2018-10-07T09:47:30.622Z,13.47
2018-10-07T09:49:58.338Z,12.70
2018-10-07T09:52:26.852Z,11.83
2018-10-07T09:54:56.746Z,14.10
2018-10-07T09:57:24.628Z,10.80
2018-10-07T09:59:52.618Z,13.00
2018-10-07T10:02:20.267Z,11.90
2018-10-07T10:04:48.009Z,8.03
2018-10-07T10:07:15.663Z,7.50
2018-10-07T10:09:43.317Z,7.60
2018-10-07T10:12:10.878Z,10.00
2018-10-07T10:14:38.478Z,5.67
2018-10-07T10:17:07.999Z,6.77
2018-10-07T10:19:40.916Z,6.87
2018-10-07T10:22:19.058Z,7.07
2018-10-07T10:25:17.410Z,3.90
2018-10-07T10:29:07.442Z,4.23
2018-10-07T10:31:45.369Z,4.87
2018-10-07T10:35:19.358Z,4.33
2018-10-07T10:38:00.582Z,4.57
2018-10-07T10:40:36.397Z,13.83
2018-10-07T10:43:12.405Z,8.87
2018-10-07T10:47:11.169Z,7.13
2018-10-07T10:49:51.814Z,6.03
2018-10-07T10:52:23.774Z,6.30
2018-10-07T10:54:59.098Z,6.67
2018-10-07T10:57:35.384Z,6.07
2018-10-07T11:00:11.166Z,7.23
2018-10-07T11:02:42.265Z,8.90
2018-10-07T11:05:21.825Z,7.07
2018-10-07T11:08:00.390Z,8.73
2018-10-07T11:10:38.791Z,7.23
2018-10-07T11:13:32.780Z,6.43
2018-10-07T11:16:06.514Z,8.87
2018-10-07T11:19:45.074Z,6.37
2018-10-07T11:22:19.545Z,7.43
2018-10-07T11:29:02.353Z,5.83
2018-10-07T11:33:41.105Z,6.67
2018-10-07T11:38:24.644Z,4.73
2018-10-07T11:43:19.117Z,6.83
2018-10-07T11:45:55.924Z,5.80
2018-10-07T11:48:38.364Z,5.80
2018-10-07T11:51:09.674Z,5.83
2018-10-07T11:53:42.726Z,4.67
2018-10-07T11:56:10.278Z,4.37
2018-10-07T11:58:37.955Z,4.17
2018-10-07T12:01:05.586Z,3.33
2018-10-07T12:03:33.262Z,3.90
2018-10-07T12:06:00.950Z,4.67
2018-10-07T12:08:28.535Z,4.13
2018-10-07T12:10:56.188Z,4.87
2018-10-07T12:13:23.753Z,3.37
2018-10-07T12:15:51.417Z,2.57
2018-10-07T12:18:19.023Z,2.93
2018-10-07T12:20:46.605Z,2.80
2018-10-07T12:23:14.385Z,2.63
2018-10-07T12:25:42.066Z,2.30
2018-10-07T12:28:10.595Z,2.20
2018-10-07T12:30:38.178Z,1.93
2018-10-07T12:33:06.153Z,4.77
2018-10-07T12:35:33.739Z,3.83
2018-10-07T12:38:01.499Z,4.67
2018-10-07T12:40:29.155Z,4.30
2018-10-07T12:42:56.768Z,4.77
2018-10-07T12:45:24.366Z,2.20
2018-10-07T12:47:51.909Z,1.80
2018-10-07T12:50:19.495Z,2.00
2018-10-07T12:52:49.761Z,2.27
2018-10-07T12:55:17.468Z,2.70
2018-10-07T12:57:45.018Z,2.37
2018-10-07T13:00:13.084Z,3.43
2018-10-07T13:02:40.757Z,1.53
2018-10-07T13:05:08.342Z,2.70
2018-10-07T13:07:35.922Z,1.50
2018-10-07T13:10:07.414Z,1.60
2018-10-07T13:12:35.064Z,2.43
2018-10-07T13:15:03.508Z,1.90
2018-10-07T13:17:31.681Z,2.20
2018-10-07T13:19:59.273Z,1.23
2018-10-07T13:22:27.513Z,1.83
2018-10-07T13:24:55.079Z,4.20
2018-10-07T13:27:22.737Z,2.47
2018-10-07T13:29:50.280Z,2.03
2018-10-07T13:32:17.821Z,1.27
2018-10-07T13:34:45.361Z,14.83
2018-10-07T13:37:13.151Z,7.10
2018-10-07T13:39:40.734Z,2.23
2018-10-07T13:42:09.986Z,1.57
2018-10-07T13:44:37.825Z,2.60
2018-10-07T13:47:06.544Z,1.93
2018-10-07T13:49:34.247Z,1.20
2018-10-07T13:52:01.822Z,1.30
2018-10-07T13:54:29.444Z,1.57
2018-10-07T13:56:57.005Z,3.03
2018-10-07T13:59:25.393Z,1.73
2018-10-07T14:01:52.966Z,1.10
2018-10-07T14:04:20.586Z,1.47
2018-10-07T14:06:48.448Z,2.40
2018-10-07T14:09:19.038Z,1.00
2018-10-07T14:11:46.612Z,1.03
2018-10-07T14:14:14.180Z,1.37
2018-10-07T14:16:41.733Z,1.07
2018-10-07T14:19:09.318Z,1.00
2018-10-07T14:21:37.011Z,1.43
2018-10-07T14:24:04.676Z,8.57
2018-10-07T14:26:32.231Z,7.57
2018-10-07T14:28:59.909Z,0.93
2018-10-07T14:31:27.463Z,1.17
2018-10-07T14:33:55.107Z,1.72
2018-10-07T14:36:22.610Z,1.15
2018-10-07T14:38:50.916Z,1.55
2018-10-07T14:41:18.474Z,1.12
2018-10-07T14:43:46.162Z,2.37
2018-10-07T14:46:13.807Z,1.42
2018-10-07T14:48:41.436Z,0.78
2018-10-07T14:51:09.434Z,2.92
2018-10-07T14:53:37.297Z,1.10
2018-10-07T14:56:04.896Z,1.93
2018-10-07T14:58:33.216Z,1.20
2018-10-07T15:01:00.807Z,1.20
2018-10-07T15:03:28.413Z,1.80
2018-10-07T15:05:56.682Z,2.20
2018-10-07T15:08:24.249Z,2.13
2018-10-07T15:10:51.849Z,6.17
2018-10-07T15:13:19.564Z,2.43
2018-10-07T15:15:47.150Z,1.63
2018-10-07T15:18:14.694Z,1.10
2018-10-07T15:20:42.387Z,1.20
2018-10-07T15:23:10.089Z,2.47
2018-10-07T15:25:37.694Z,3.30
2018-10-07T15:28:05.797Z,4.57
2018-10-07T15:30:33.388Z,1.50
2018-10-07T15:33:00.949Z,1.30
2018-10-07T15:35:28.547Z,1.70
2018-10-07T15:37:56.209Z,1.37
2018-10-07T15:40:24.043Z,1.37
2018-10-07T15:42:51.672Z,1.00
2018-10-07T15:45:19.245Z,1.57
2018-10-07T15:47:46.916Z,1.67
2018-10-07T15:50:14.441Z,2.00
2018-10-07T15:52:41.997Z,1.33
2018-10-07T15:55:10.086Z,0.93
2018-10-07T15:57:37.726Z,1.30
2018-10-07T16:00:05.410Z,1.40
2018-10-07T16:02:33.009Z,1.77
2018-10-07T16:05:00.574Z,1.67
2018-10-07T16:07:28.177Z,1.63
2018-10-07T16:09:55.791Z,5.60
2018-10-07T16:12:25.449Z,1.90
2018-10-07T16:14:53.210Z,0.83
2018-10-07T16:17:21.093Z,1.13
2018-10-07T16:19:48.827Z,1.27
2018-10-07T16:22:16.434Z,2.40
2018-10-07T16:24:44.029Z,0.70
2018-10-07T16:27:14.585Z,1.00
2018-10-07T16:29:42.161Z,1.30
2018-10-07T16:32:09.907Z,2.10
2018-10-07T16:34:37.417Z,1.00
2018-10-07T16:37:05.023Z,1.93
2018-10-07T16:39:32.782Z,1.77
2018-10-07T16:42:01.413Z,1.17
2018-10-07T16:44:28.973Z,1.53
2018-10-07T16:46:56.584Z,1.47
2018-10-07T16:49:24.204Z,2.20
2018-10-07T16:51:51.837Z,1.20
2018-10-07T16:54:19.373Z,1.83
2018-10-07T16:56:49.949Z,2.43
2018-10-07T16:59:18.158Z,1.60
2018-10-07T17:01:45.811Z,1.33
2018-10-07T17:04:13.674Z,20.93
2018-10-07T17:06:41.254Z,3.63
2018-10-07T17:09:09.374Z,1.80
2018-10-07T17:11:36.957Z,1.37
2018-10-07T17:14:04.585Z,1.30
2018-10-07T17:16:32.173Z,1.57
2018-10-07T17:18:59.753Z,2.03
2018-10-07T17:21:27.338Z,2.90
2018-10-07T17:23:54.889Z,2.10
2018-10-07T17:26:22.522Z,1.87
2018-10-07T17:28:50.129Z,1.77
2018-10-07T17:31:17.758Z,1.90
2018-10-07T17:33:45.498Z,1.83
2018-10-07T17:36:13.042Z,2.63
2018-10-07T17:38:40.856Z,1.63
2018-10-07T17:41:10.402Z,2.30
2018-10-07T17:43:37.980Z,2.20
2018-10-07T17:46:05.626Z,1.80
2018-10-07T17:48:33.895Z,1.30
2018-10-07T17:51:02.187Z,1.20
2018-10-07T17:53:29.803Z,29.40
2018-10-07T17:55:58.754Z,72.50
2018-10-07T17:58:26.310Z,10.80
2018-10-07T18:00:53.982Z,3.90
2018-10-07T18:03:21.574Z,4.27
2018-10-07T18:05:49.197Z,2.80
2018-10-07T18:08:16.880Z,2.93
2018-10-07T18:10:44.453Z,3.10
2018-10-07T18:13:11.989Z,2.50
2018-10-07T18:15:39.593Z,4.03
2018-10-07T18:18:07.146Z,3.23
2018-10-07T18:20:34.742Z,2.27
2018-10-07T18:23:02.301Z,2.50
2018-10-07T18:25:29.886Z,2.03
2018-10-07T18:27:58.522Z,3.37
2018-10-07T18:30:26.160Z,1.77
2018-10-07T18:32:53.718Z,2.87
2018-10-07T18:35:21.909Z,1.70
2018-10-07T18:37:49.453Z,1.80
2018-10-07T18:40:17.445Z,2.00
2018-10-07T18:42:45.038Z,2.47
2018-10-07T18:45:14.808Z,2.70
2018-10-07T18:47:49.390Z,3.67
2018-10-07T18:50:18.497Z,3.20
2018-10-07T18:52:46.646Z,2.83
2018-10-07T18:55:14.726Z,2.43
2018-10-07T18:57:42.266Z,4.23
2018-10-07T19:00:10.625Z,3.07
2018-10-07T19:02:38.349Z,3.43
2018-10-07T19:05:05.934Z,4.60
2018-10-07T19:07:33.550Z,5.40
2018-10-07T19:10:01.291Z,11.93
2018-10-07T19:12:28.898Z,4.83
2018-10-07T19:14:56.787Z,2.57
2018-10-07T19:17:24.886Z,3.70
2018-10-07T19:19:53.307Z,2.67
2018-10-07T19:22:21.875Z,3.60
2018-10-07T19:24:49.957Z,2.60
2018-10-07T19:27:17.513Z,3.77
2018-10-07T19:29:45.862Z,3.40
2018-10-07T19:32:13.492Z,3.77
2018-10-07T19:34:41.143Z,3.13
2018-10-07T19:37:10.592Z,2.63
2018-10-07T19:39:38.085Z,4.17
2018-10-07T19:42:05.693Z,2.73
2018-10-07T19:44:33.303Z,2.50
2018-10-07T19:47:00.845Z,2.43
2018-10-07T19:49:28.414Z,5.20
2018-10-07T19:51:56.237Z,4.30
2018-10-07T19:54:24.450Z,6.70
2018-10-07T19:56:52.012Z,2.90
2018-10-07T19:59:19.581Z,16.00
2018-10-07T20:01:47.144Z,35.53
2018-10-07T20:04:14.754Z,4.33
2018-10-07T20:06:45.173Z,2.90
2018-10-07T20:09:12.893Z,3.37
2018-10-07T20:11:40.573Z,3.10
2018-10-07T20:14:09.120Z,3.00
2018-10-07T20:16:36.806Z,3.43
2018-10-07T20:19:04.445Z,3.53
2018-10-07T20:21:32.125Z,4.63
2018-10-07T20:24:03.225Z,3.53
2018-10-07T20:26:31.467Z,3.40
2018-10-07T20:28:59.085Z,3.33
2018-10-07T20:31:26.920Z,3.23
2018-10-07T20:33:54.703Z,2.50
2018-10-07T20:36:22.354Z,2.63
2018-10-07T20:38:50.531Z,2.90
2018-10-07T20:41:18.149Z,3.80
2018-10-07T20:43:45.702Z,2.60
2018-10-07T20:46:13.417Z,4.30
2018-10-07T20:48:41.134Z,3.60
2018-10-07T20:51:09.236Z,3.03
2018-10-07T20:53:36.830Z,4.10
2018-10-07T20:56:05.371Z,3.37
2018-10-07T20:58:33.471Z,3.47
2018-10-07T21:01:01.556Z,3.23
2018-10-07T21:03:32.257Z,3.47
2018-10-07T21:05:59.829Z,5.17
2018-10-07T21:08:27.767Z,6.33
2018-10-07T21:10:55.791Z,6.83
2018-10-07T21:13:24.059Z,9.43
2018-10-07T21:15:52.288Z,6.70
2018-10-07T21:18:19.878Z,4.43
2018-10-07T21:20:47.449Z,3.60
2018-10-07T21:23:15.005Z,4.00
2018-10-07T21:25:42.997Z,2.87
2018-10-07T21:28:10.555Z,2.83
2018-10-07T21:30:38.497Z,3.10
2018-10-07T21:33:06.981Z,4.13
2018-10-07T21:35:34.575Z,4.43
2018-10-07T21:38:02.419Z,4.30
2018-10-07T21:40:30.001Z,3.50
2018-10-07T21:42:57.574Z,3.90
2018-10-07T21:45:25.192Z,4.10
2018-10-07T21:47:53.393Z,2.63
2018-10-07T21:50:21.049Z,3.67
2018-10-07T21:52:48.602Z,2.77
2018-10-07T21:55:17.095Z,3.10
2018-10-07T21:57:44.657Z,3.17
2018-10-07T22:00:12.281Z,4.63
2018-10-07T22:02:40.613Z,4.97
2018-10-07T22:05:09.720Z,7.37
2018-10-07T22:07:37.293Z,3.80
2018-10-07T22:10:04.889Z,4.73
2018-10-07T22:12:33.034Z,6.87
2018-10-07T22:15:00.587Z,3.90
2018-10-07T22:17:28.349Z,4.30
2018-10-07T22:19:55.912Z,8.77
2018-10-07T22:22:26.120Z,5.40
2018-10-07T22:24:53.777Z,4.13
2018-10-07T22:27:21.402Z,3.50
2018-10-07T22:29:49.056Z,4.90
2018-10-07T22:32:17.410Z,5.20
2018-10-07T22:34:45.082Z,4.27
2018-10-07T22:37:12.654Z,4.17
2018-10-07T22:39:40.206Z,3.30
2018-10-07T22:42:07.768Z,5.37
2018-10-07T22:44:36.213Z,4.70
2018-10-07T22:47:03.897Z,4.93
2018-10-07T22:49:31.601Z,3.90
2018-10-07T22:51:59.511Z,6.03
2018-10-07T22:54:31.097Z,6.60
2018-10-07T22:57:00.121Z,4.33
2018-10-07T22:59:29.998Z,4.23
2018-10-07T23:01:59.000Z,4.93
2018-10-07T23:04:26.574Z,5.10
2018-10-07T23:06:54.265Z,7.80
2018-10-07T23:09:23.649Z,4.70
2018-10-07T23:11:51.213Z,4.90
2018-10-07T23:14:18.753Z,5.27
2018-10-07T23:16:46.324Z,6.73
2018-10-07T23:19:14.009Z,6.53
2018-10-07T23:21:43.272Z,6.30
2018-10-07T23:24:12.090Z,8.03
2018-10-07T23:26:39.673Z,6.73
2018-10-07T23:29:07.244Z,6.73
2018-10-07T23:31:34.816Z,6.60
2018-10-07T23:34:02.708Z,7.13
2018-10-07T23:36:30.433Z,6.90
2018-10-07T23:38:58.009Z,7.30
2018-10-07T23:41:28.288Z,6.67
2018-10-07T23:43:57.234Z,3.97
2018-10-07T23:46:24.816Z,6.23
2018-10-07T23:48:52.390Z,5.70
2018-10-07T23:51:21.137Z,4.67
2018-10-07T23:53:48.998Z,5.57
2018-10-07T23:56:18.265Z,6.93
2018-10-07T23:58:47.339Z,4.50
